This is the latest recevied weather packets stored in our database for station/object KD7JB. If no packets are shown the sender has not sent any weather packets the latest 10 day(s).
| Time | Temp. | Humidity | Pressure | Rain* | Wind** | Luminosity | Snow |
|---|---|---|---|---|---|---|---|
| 1777403010 | 10° C | 55% | 1178.4 hPa | 0 mm | - | 491 W/m² | - |
| 1777402706 | 10.56° C | 55% | 1178.3 hPa | 0 mm | - | 493 W/m² | - |
| 1777402406 | 10.56° C | 55% | 1178.3 hPa | 0 mm | - | 703 W/m² | - |
| 1777402104 | 10° C | 55% | 1178.3 hPa | 0 mm | - | 656 W/m² | - |
| 1777401800 | 9.44° C | 55% | 1178.3 hPa | 0 mm | - | 577 W/m² | - |
| 1777401500 | 9.44° C | 58% | 1178.2 hPa | 0 mm | - | 577 W/m² | - |
| 1777401195 | 9.44° C | 58% | 1178.3 hPa | 0 mm | - | 477 W/m² | - |
| 1777400891 | 8.89° C | 58% | 1178.1 hPa | 0 mm | - | 514 W/m² | - |
| 1777400587 | 9.44° C | 57% | 1178.2 hPa | 0 mm | - | 523 W/m² | - |
| 1777400285 | 8.89° C | 61% | 1178 hPa | 0 mm | - | 496 W/m² | - |
| 1777399980 | 8.89° C | 59% | 1178.1 hPa | 0 mm | - | 474 W/m² | - |
| 1777399677 | 9.44° C | 58% | 1178.1 hPa | 0 mm | - | 458 W/m² | - |
| 1777399375 | 8.89° C | 58% | 1178.2 hPa | 0 mm | - | 513 W/m² | - |
| 1777399072 | 8.89° C | 60% | 1178.1 hPa | 0 mm | - | 522 W/m² | - |
| 1777398769 | 8.89° C | 59% | 1178.1 hPa | 0 mm | - | 518 W/m² | - |
| 1777398466 | 9.44° C | 58% | 1178 hPa | 0 mm | - | 535 W/m² | - |
| 1777398163 | 9.44° C | 57% | 1178.2 hPa | 0 mm | - | 560 W/m² | - |
| 1777397860 | 8.89° C | 58% | 1178 hPa | 0 mm | - | 470 W/m² | - |
| 1777397555 | 8.89° C | 58% | 1178 hPa | 0 mm | - | 531 W/m² | - |
| 1777397252 | 8.89° C | 58% | 1178 hPa | 0 mm | - | 478 W/m² | - |
| 1777396948 | 8.89° C | 59% | 1177.9 hPa | 0 mm | - | 515 W/m² | - |
| 1777396645 | 8.89° C | 60% | 1178 hPa | 0 mm | - | 535 W/m² | - |
| 1777396342 | 8.89° C | 61% | 1178 hPa | 0 mm | - | 535 W/m² | - |
| 1777396039 | 8.89° C | 63% | 1177.6 hPa | 0 mm | - | 550 W/m² | - |
| 1777395739 | 8.33° C | 61% | 1177.8 hPa | 0 mm | - | 568 W/m² | - |
* Rain latest hour (hover to see other rain measurements)
** Current wind speed in m/s (hover to see current wind gust speed)